Time,TemperatureF,DewpointF,PressureIn,WindDirection,WindDirectionDegrees,WindSpeedMPH,WindSpeedGustMPH,Humidity,HourlyPrecipIn,Conditions,Clouds,dailyrainin,SoftwareType,DateUTC
2013-07-18 00:02:00,65.3,39.7,30.01,ESE,105,0.0,0.0,39,0.00,,FEW080,0.00,VWS V14.01,2013-07-18 07:02:00,
2013-07-18 00:07:00,65.5,40.5,30.01,ESE,105,0.0,0.0,40,0.00,,FEW080,0.00,VWS V14.01,2013-07-18 07:07:00,
2013-07-18 00:12:00,65.5,39.9,30.01,ESE,105,0.0,0.0,39,0.00,,FEW080,0.00,VWS V14.01,2013-07-18 07:12:00,
2013-07-18 00:17:00,65.5,39.2,30.01,ESE,105,0.0,0.0,38,0.00,,FEW080,0.00,VWS V14.01,2013-07-18 07:17:00,
2013-07-18 00:22:00,64.9,38.1,30.01,ESE,105,0.0,0.0,37,0.00,,FEW080,0.00,VWS V14.01,2013-07-18 07:22:00,
2013-07-18 00:27:00,64.8,37.9,30.01,ESE,105,0.0,0.0,37,0.00,,FEW080,0.00,VWS V14.01,2013-07-18 07:27:00,
2013-07-18 00:32:00,64.8,37.9,30.01,ESE,104,0.0,0.0,37,0.00,,FEW080,0.00,VWS V14.01,2013-07-18 07:32:00,
2013-07-18 00:37:00,64.4,38.3,30.01,ESE,104,0.0,0.0,38,0.00,,FEW080,0.00,VWS V14.01,2013-07-18 07:37:00,
2013-07-18 00:41:00,63.7,38.3,30.01,ESE,104,0.0,0.0,39,0.00,,FEW080,0.00,VWS V14.01,2013-07-18 07:41:00,
2013-07-18 00:46:00,63.9,39.1,30.01,ESE,104,0.0,0.0,40,0.00,,FEW080,0.00,VWS V14.01,2013-07-18 07:46:00,
2013-07-18 00:51:00,64.4,38.9,30.01,ENE,74,0.0,0.0,39,0.00,,FEW080,0.00,VWS V14.01,2013-07-18 07:51:00,
2013-07-18 00:56:00,64.6,39.1,30.01,ENE,74,0.0,0.0,39,0.00,,FEW080,0.00,VWS V14.01,2013-07-18 07:56:00,
2013-07-18 01:01:00,64.4,38.9,30.01,ENE,74,0.0,0.0,39,0.00,,FEW100,0.00,VWS V14.01,2013-07-18 08:01:00,
2013-07-18 01:06:00,64.2,39.4,30.01,ENE,74,0.0,0.0,40,0.00,,FEW100,0.00,VWS V14.01,2013-07-18 08:06:00,
2013-07-18 01:11:00,63.9,39.7,30.01,ENE,74,0.0,0.0,41,0.00,,FEW100,0.00,VWS V14.01,2013-07-18 08:11:00,
2013-07-18 01:16:00,63.5,39.4,30.01,ENE,74,0.0,0.0,41,0.00,,FEW100,0.00,VWS V14.01,2013-07-18 08:16:00,
2013-07-18 01:21:00,63.3,39.9,30.01,ENE,74,0.0,0.0,42,0.00,,FEW100,0.00,VWS V14.01,2013-07-18 08:21:00,
2013-07-18 01:26:00,63.1,40.9,30.01,ENE,74,0.0,0.0,44,0.00,,FEW100,0.00,VWS V14.01,2013-07-18 08:26:00,
2013-07-18 01:31:00,63.1,40.9,30.01,ENE,74,0.0,0.0,44,0.00,,FEW100,0.00,VWS V14.01,2013-07-18 08:31:00,
2013-07-18 01:36:00,63.1,40.9,30.01,ENE,74,0.0,0.0,44,0.00,,FEW100,0.00,VWS V14.01,2013-07-18 08:36:00,
2013-07-18 01:41:00,63.1,40.9,30.01,ENE,74,0.0,0.0,44,0.00,,FEW100,0.00,VWS V14.01,2013-07-18 08:41:00,
2013-07-18 01:46:00,63.0,40.7,30.01,ENE,74,0.0,0.0,44,0.00,,FEW100,0.00,VWS V14.01,2013-07-18 08:46:00,
2013-07-18 01:51:00,62.4,40.8,30.01,ENE,74,0.0,0.0,45,0.00,,FEW100,0.00,VWS V14.01,2013-07-18 08:51:00,
2013-07-18 01:56:00,62.2,40.7,30.01,ENE,74,0.0,0.0,45,0.00,,FEW100,0.00,VWS V14.01,2013-07-18 08:56:00,
2013-07-18 02:01:00,62.1,40.5,30.01,ENE,74,0.0,0.0,45,0.00,,FEW100,0.00,VWS V14.01,2013-07-18 09:01:00,
2013-07-18 02:06:00,61.9,41.5,30.01,ENE,74,0.0,0.0,47,0.00,,FEW100,0.00,VWS V14.01,2013-07-18 09:06:00,
2013-07-18 02:11:00,61.7,41.3,30.01,ENE,74,0.0,0.0,47,0.00,,FEW100,0.00,VWS V14.01,2013-07-18 09:11:00,
2013-07-18 02:16:00,61.3,41.0,30.01,ENE,74,0.0,0.0,47,0.00,,FEW100,0.00,VWS V14.01,2013-07-18 09:16:00,
2013-07-18 02:21:00,61.2,40.8,30.01,ENE,74,0.0,0.0,47,0.00,,FEW100,0.00,VWS V14.01,2013-07-18 09:21:00,
2013-07-18 02:26:00,61.0,41.2,30.01,ENE,74,0.0,0.0,48,0.00,,FEW100,0.00,VWS V14.01,2013-07-18 09:26:00,
2013-07-18 02:31:00,60.8,41.0,30.01,ENE,74,0.0,0.0,48,0.00,,FEW100,0.00,VWS V14.01,2013-07-18 09:31:00,
2013-07-18 02:36:00,61.0,41.2,30.01,ENE,74,0.0,0.0,48,0.00,,FEW100,0.00,VWS V14.01,2013-07-18 09:36:00,
2013-07-18 02:41:00,60.6,40.8,30.01,ENE,74,0.0,0.0,48,0.00,,FEW100,0.00,VWS V14.01,2013-07-18 09:41:00,
2013-07-18 02:46:00,60.4,41.2,30.01,ENE,74,0.0,0.0,49,0.00,,FEW100,0.00,VWS V14.01,2013-07-18 09:46:00,
2013-07-18 02:51:00,60.4,41.2,30.01,ENE,74,0.0,0.0,49,0.00,,FEW100,0.00,VWS V14.01,2013-07-18 09:51:00,
2013-07-18 02:56:00,60.4,41.7,30.01,ENE,74,0.0,0.0,50,0.00,,FEW100,0.00,VWS V14.01,2013-07-18 09:56:00,
2013-07-18 03:01:00,60.3,41.0,30.01,ENE,74,0.0,0.0,49,0.00,,CLR,0.00,VWS V14.01,2013-07-18 10:01:00,
2013-07-18 03:06:00,60.1,40.9,30.01,ENE,74,0.0,0.0,49,0.00,,CLR,0.00,VWS V14.01,2013-07-18 10:06:00,
2013-07-18 03:11:00,59.9,41.2,30.01,ENE,74,0.0,0.0,50,0.00,,CLR,0.00,VWS V14.01,2013-07-18 10:11:00,
2013-07-18 03:16:00,59.9,40.7,30.01,ENE,74,0.0,0.0,49,0.00,,CLR,0.00,VWS V14.01,2013-07-18 10:16:00,
2013-07-18 03:21:00,60.3,41.0,30.01,ENE,74,0.0,0.0,49,0.00,,CLR,0.00,VWS V14.01,2013-07-18 10:21:00,
2013-07-18 03:26:00,60.4,41.7,30.01,ENE,74,0.0,2.7,50,0.00,,CLR,0.00,VWS V14.01,2013-07-18 10:26:00,
2013-07-18 03:31:00,60.4,41.2,30.01,ENE,74,0.0,0.0,49,0.00,,CLR,0.00,VWS V14.01,2013-07-18 10:31:00,
2013-07-18 03:36:00,60.3,41.0,30.03,ENE,74,0.0,0.0,49,0.00,,CLR,0.00,VWS V14.01,2013-07-18 10:36:00,
2013-07-18 03:41:00,60.1,40.3,30.03,ENE,74,0.0,0.0,48,0.00,,CLR,0.00,VWS V14.01,2013-07-18 10:41:00,
2013-07-18 03:46:00,59.9,40.2,30.03,ENE,74,0.0,0.0,48,0.00,,CLR,0.00,VWS V14.01,2013-07-18 10:46:00,
2013-07-18 03:51:00,60.1,40.3,30.01,ENE,74,0.0,0.0,48,0.00,,CLR,0.00,VWS V14.01,2013-07-18 10:51:00,
2013-07-18 03:56:00,59.9,40.2,30.01,ENE,74,0.0,0.0,48,0.00,,CLR,0.00,VWS V14.01,2013-07-18 10:56:00,
2013-07-18 04:01:00,59.5,40.9,30.01,ENE,74,0.0,0.0,50,0.00,,CLR,0.00,VWS V14.01,2013-07-18 11:01:00,
2013-07-18 04:06:00,59.5,40.9,30.03,ENE,74,0.0,0.0,50,0.00,,CLR,0.00,VWS V14.01,2013-07-18 11:06:00,
2013-07-18 04:11:00,59.5,40.4,30.03,ENE,74,0.0,0.0,49,0.00,,CLR,0.00,VWS V14.01,2013-07-18 11:11:00,
2013-07-18 04:16:00,59.2,40.0,30.03,ENE,74,0.0,0.0,49,0.00,,CLR,0.00,VWS V14.01,2013-07-18 11:16:00,
2013-07-18 04:21:00,58.8,39.7,30.03,ENE,74,0.0,0.0,49,0.00,,CLR,0.00,VWS V14.01,2013-07-18 11:21:00,
2013-07-18 04:26:00,58.5,39.9,30.03,ENE,74,0.0,0.0,50,0.00,,CLR,0.00,VWS V14.01,2013-07-18 11:26:00,
2013-07-18 04:31:00,58.5,40.4,30.03,ENE,74,0.0,0.0,51,0.00,,CLR,0.00,VWS V14.01,2013-07-18 11:31:00,
2013-07-18 04:36:00,58.1,39.6,30.03,ENE,74,0.0,0.0,50,0.00,,CLR,0.00,VWS V14.01,2013-07-18 11:36:00,
2013-07-18 04:41:00,58.5,39.9,30.03,ENE,74,2.7,2.7,50,0.00,,CLR,0.00,VWS V14.01,2013-07-18 11:41:00,
2013-07-18 04:46:00,58.6,40.1,30.03,ENE,74,0.0,0.0,50,0.00,,CLR,0.00,VWS V14.01,2013-07-18 11:46:00,
2013-07-18 04:51:00,58.6,40.1,30.03,ENE,74,0.0,0.0,50,0.00,,CLR,0.00,VWS V14.01,2013-07-18 11:51:00,
2013-07-18 04:56:00,58.5,39.9,30.03,ENE,78,0.0,0.0,50,0.00,,CLR,0.00,VWS V14.01,2013-07-18 11:56:00,
2013-07-18 05:01:00,58.5,39.9,30.03,ENE,78,0.0,0.0,50,0.00,,FEW100,0.00,VWS V14.01,2013-07-18 12:01:00,
2013-07-18 05:06:00,58.3,39.7,30.03,ENE,78,0.0,0.0,50,0.00,,FEW100,0.00,VWS V14.01,2013-07-18 12:06:00,
2013-07-18 05:11:00,58.3,39.7,30.03,East,87,2.7,2.7,50,0.00,,FEW100,0.00,VWS V14.01,2013-07-18 12:11:00,
2013-07-18 05:16:00,58.5,39.9,30.03,East,96,2.7,2.7,50,0.00,,FEW100,0.00,VWS V14.01,2013-07-18 12:16:00,
2013-07-18 05:21:00,58.5,39.9,30.03,ESE,108,0.0,0.0,50,0.00,,FEW100,0.00,VWS V14.01,2013-07-18 12:21:00,
2013-07-18 05:26:00,58.5,39.9,30.03,SE,135,3.6,3.6,50,0.00,,FEW100,0.00,VWS V14.01,2013-07-18 12:26:00,
2013-07-18 05:31:00,58.5,40.4,30.03,SSW,203,0.0,0.0,51,0.00,,FEW100,0.00,VWS V14.01,2013-07-18 12:31:00,
2013-07-18 05:36:00,58.6,41.6,30.03,South,175,3.1,3.1,53,0.00,,FEW100,0.00,VWS V14.01,2013-07-18 12:36:00,
2013-07-18 05:41:00,59.0,41.4,30.03,SSE,164,0.0,0.0,52,0.00,,FEW100,0.00,VWS V14.01,2013-07-18 12:41:00,
2013-07-18 05:46:00,59.5,41.4,30.03,SSW,194,0.0,0.0,51,0.00,,FEW100,0.00,VWS V14.01,2013-07-18 12:46:00,
2013-07-18 05:51:00,60.1,40.9,30.03,SSW,194,0.0,0.0,49,0.00,,FEW100,0.00,VWS V14.01,2013-07-18 12:51:00,
2013-07-18 05:56:00,60.3,41.0,30.03,SSW,194,0.0,0.0,49,0.00,,FEW100,0.00,VWS V14.01,2013-07-18 12:56:00,
2013-07-18 06:01:00,60.4,41.2,30.03,SSW,197,0.0,2.2,49,0.00,,FEW110,0.00,VWS V14.01,2013-07-18 13:01:00,
2013-07-18 06:06:00,60.6,41.4,30.03,SE,137,0.0,0.0,49,0.00,,FEW110,0.00,VWS V14.01,2013-07-18 13:06:00,
2013-07-18 06:11:00,60.8,41.5,30.03,SE,141,0.0,0.0,49,0.00,,FEW110,0.00,VWS V14.01,2013-07-18 13:11:00,
2013-07-18 06:16:00,61.3,41.5,30.03,SE,133,0.0,0.0,48,0.00,,FEW110,0.00,VWS V14.01,2013-07-18 13:16:00,
2013-07-18 06:21:00,61.7,41.8,30.06,South,178,0.0,2.7,48,0.00,,FEW110,0.00,VWS V14.01,2013-07-18 13:21:00,
2013-07-18 06:26:00,62.1,42.2,30.06,SW,235,0.0,2.2,48,0.00,,FEW110,0.00,VWS V14.01,2013-07-18 13:26:00,
2013-07-18 06:31:00,62.8,41.7,30.06,West,265,2.2,2.2,46,0.00,,FEW110,0.00,VWS V14.01,2013-07-18 13:31:00,
2013-07-18 06:36:00,63.7,42.0,30.06,WSW,254,2.2,2.2,45,0.00,,FEW110,0.00,VWS V14.01,2013-07-18 13:36:00,
2013-07-18 06:41:00,65.5,42.4,30.06,East,95,0.0,2.2,43,0.00,,FEW110,0.00,VWS V14.01,2013-07-18 13:41:00,
2013-07-18 06:46:00,67.3,42.2,30.06,ENE,74,3.1,4.0,40,0.00,,FEW110,0.00,VWS V14.01,2013-07-18 13:46:00,
2013-07-18 06:51:00,70.9,42.6,30.06,SE,131,0.0,0.0,36,0.00,,FEW110,0.00,VWS V14.01,2013-07-18 13:51:00,
2013-07-18 06:56:00,73.4,41.8,30.06,ENE,63,0.0,0.0,32,0.00,,FEW110,0.00,VWS V14.01,2013-07-18 13:56:00,
2013-07-18 07:01:00,74.7,42.9,30.06,South,189,2.7,2.7,32,0.00,,FEW090,0.00,VWS V14.01,2013-07-18 14:01:00,
2013-07-18 07:06:00,75.2,42.5,30.06,ESE,114,3.6,4.0,31,0.00,,FEW090,0.00,VWS V14.01,2013-07-18 14:06:00,
2013-07-18 07:11:00,75.7,43.0,30.06,SSE,160,0.0,0.0,31,0.00,,FEW090,0.00,VWS V14.01,2013-07-18 14:11:00,
2013-07-18 07:16:00,76.3,41.7,30.06,ENE,74,2.7,3.6,29,0.00,,FEW090,0.00,VWS V14.01,2013-07-18 14:16:00,
2013-07-18 07:21:00,75.6,42.0,30.06,ENE,60,2.2,2.2,30,0.00,,FEW090,0.00,VWS V14.01,2013-07-18 14:21:00,
2013-07-18 07:26:00,76.6,42.0,30.06,ENE,60,0.0,0.0,29,0.00,,FEW090,0.00,VWS V14.01,2013-07-18 14:26:00,
2013-07-18 07:31:00,77.7,41.1,30.06,NE,54,0.0,0.0,27,0.00,,FEW090,0.00,VWS V14.01,2013-07-18 14:31:00,
2013-07-18 07:36:00,77.9,41.3,30.06,ENE,61,0.0,0.0,27,0.00,,FEW090,0.00,VWS V14.01,2013-07-18 14:36:00,
2013-07-18 07:41:00,78.8,40.0,30.06,ENE,62,0.0,0.0,25,0.00,,FEW090,0.00,VWS V14.01,2013-07-18 14:41:00,
2013-07-18 07:46:00,79.9,41.0,30.06,East,88,0.0,0.0,25,0.00,,FEW090,0.00,VWS V14.01,2013-07-18 14:46:00,
2013-07-18 07:51:00,80.1,41.1,30.06,ENE,61,3.6,3.6,25,0.00,,FEW090,0.00,VWS V14.01,2013-07-18 14:51:00,
2013-07-18 07:56:00,80.1,42.1,30.06,ENE,71,2.2,2.2,26,0.00,,FEW090,0.00,VWS V14.01,2013-07-18 14:56:00,
2013-07-18 08:01:00,80.6,40.5,30.06,ENE,74,0.0,0.0,24,0.00,,CLR,0.00,VWS V14.01,2013-07-18 15:01:00,
2013-07-18 08:06:00,81.0,40.8,30.06,North,0,0.0,0.0,24,0.00,,CLR,0.00,VWS V14.01,2013-07-18 15:06:00,
2013-07-18 08:11:00,82.2,40.8,30.06,ENE,60,3.1,3.1,23,0.00,,CLR,0.00,VWS V14.01,2013-07-18 15:11:00,
2013-07-18 08:16:00,81.7,40.3,30.06,ENE,77,3.1,3.6,23,0.00,,CLR,0.00,VWS V14.01,2013-07-18 15:16:00,
2013-07-18 08:21:00,82.0,39.5,30.06,ENE,68,2.2,2.7,22,0.00,,CLR,0.00,VWS V14.01,2013-07-18 15:21:00,
2013-07-18 08:26:00,82.8,40.1,30.06,East,91,0.0,2.7,22,0.00,,CLR,0.00,VWS V14.01,2013-07-18 15:26:00,
2013-07-18 08:31:00,83.7,40.8,30.06,NE,53,3.1,3.1,22,0.00,,CLR,0.00,VWS V14.01,2013-07-18 15:31:00,
2013-07-18 08:36:00,82.6,39.9,30.06,NNE,32,2.7,2.7,22,0.00,,CLR,0.00,VWS V14.01,2013-07-18 15:36:00,
2013-07-18 08:41:00,81.7,39.2,30.06,SSW,200,3.6,4.0,22,0.00,,CLR,0.00,VWS V14.01,2013-07-18 15:41:00,
2013-07-18 08:46:00,82.2,39.6,30.06,East,79,3.6,3.6,22,0.00,,CLR,0.00,VWS V14.01,2013-07-18 15:46:00,
2013-07-18 08:51:00,80.2,38.0,30.06,East,81,2.7,2.7,22,0.00,,CLR,0.00,VWS V14.01,2013-07-18 15:51:00,
2013-07-18 08:56:00,79.5,37.4,30.06,ENE,66,0.0,0.0,22,0.00,,CLR,0.00,VWS V14.01,2013-07-18 15:56:00,
2013-07-18 09:01:00,79.2,37.1,30.06,South,177,2.2,2.2,22,0.00,,CLR,0.00,VWS V14.01,2013-07-18 16:01:00,
2013-07-18 09:06:00,77.7,35.9,30.06,ENE,57,3.6,3.6,22,0.00,,CLR,0.00,VWS V14.01,2013-07-18 16:06:00,
2013-07-18 09:11:00,76.5,34.8,30.06,NE,53,3.1,3.1,22,0.00,,CLR,0.00,VWS V14.01,2013-07-18 16:11:00,
2013-07-18 09:16:00,76.6,36.1,30.06,SW,221,0.0,0.0,23,0.00,,CLR,0.00,VWS V14.01,2013-07-18 16:16:00,
2013-07-18 09:21:00,77.5,35.7,30.06,SW,214,0.0,0.0,22,0.00,,CLR,0.00,VWS V14.01,2013-07-18 16:21:00,
2013-07-18 09:26:00,78.4,38.7,30.06,South,170,2.2,2.7,24,0.00,,CLR,0.00,VWS V14.01,2013-07-18 16:26:00,
2013-07-18 09:31:00,78.1,36.2,30.06,South,172,0.0,2.7,22,0.00,,CLR,0.00,VWS V14.01,2013-07-18 16:31:00,
2013-07-18 09:36:00,78.6,36.6,30.06,SSW,204,2.7,2.7,22,0.00,,CLR,0.00,VWS V14.01,2013-07-18 16:36:00,
2013-07-18 09:41:00,79.5,36.2,30.06,SSE,160,2.7,3.1,21,0.00,,CLR,0.00,VWS V14.01,2013-07-18 16:41:00,
2013-07-18 09:46:00,79.7,36.3,30.06,SSE,163,0.0,2.2,21,0.00,,CLR,0.00,VWS V14.01,2013-07-18 16:46:00,
2013-07-18 09:51:00,80.2,36.8,30.06,SW,220,5.4,6.3,21,0.00,,CLR,0.00,VWS V14.01,2013-07-18 16:51:00,
2013-07-18 09:56:00,80.4,37.0,30.06,East,87,3.1,3.1,21,0.00,,CLR,0.00,VWS V14.01,2013-07-18 16:56:00,
2013-07-18 10:01:00,80.2,36.8,30.06,ENE,67,2.2,4.0,21,0.00,,CLR,0.00,VWS V14.01,2013-07-18 17:01:00,
2013-07-18 10:06:00,80.6,35.9,30.06,WNW,292,2.2,3.1,20,0.00,,CLR,0.00,VWS V14.01,2013-07-18 17:06:00,
2013-07-18 10:11:00,80.8,36.0,30.06,ENE,58,2.7,3.1,20,0.00,,CLR,0.00,VWS V14.01,2013-07-18 17:11:00,
2013-07-18 10:16:00,80.6,37.1,30.06,SW,233,3.1,3.1,21,0.00,,CLR,0.00,VWS V14.01,2013-07-18 17:16:00,
2013-07-18 10:21:00,81.1,36.3,30.06,SSW,193,0.0,3.1,20,0.00,,CLR,0.00,VWS V14.01,2013-07-18 17:21:00,
2013-07-18 10:26:00,81.5,36.6,30.06,SSW,200,4.0,5.4,20,0.00,,CLR,0.00,VWS V14.01,2013-07-18 17:26:00,
2013-07-18 10:31:00,82.0,37.0,30.06,SW,223,6.3,6.3,20,0.00,,CLR,0.00,VWS V14.01,2013-07-18 17:31:00,
2013-07-18 10:36:00,82.2,37.2,30.06,WSW,254,4.5,5.4,20,0.00,,CLR,0.00,VWS V14.01,2013-07-18 17:36:00,
2013-07-18 10:41:00,82.0,37.0,30.06,WSW,255,4.0,4.0,20,0.00,,CLR,0.00,VWS V14.01,2013-07-18 17:41:00,
2013-07-18 10:46:00,82.2,37.2,30.06,WSW,244,2.2,2.7,20,0.00,,CLR,0.00,VWS V14.01,2013-07-18 17:46:00,
2013-07-18 10:51:00,82.2,37.2,30.06,West,266,4.9,7.2,20,0.00,,CLR,0.00,VWS V14.01,2013-07-18 17:51:00,
2013-07-18 10:56:00,82.6,36.2,30.06,SW,236,0.0,0.0,19,0.00,,CLR,0.00,VWS V14.01,2013-07-18 17:56:00,
2013-07-18 11:01:00,82.2,37.2,30.06,SW,217,4.0,5.8,20,0.00,,FEW045,0.00,VWS V14.01,2013-07-18 18:01:00,
2013-07-18 11:06:00,82.4,36.0,30.06,SSW,193,6.3,6.3,19,0.00,,FEW045,0.00,VWS V14.01,2013-07-18 18:06:00,
2013-07-18 11:11:00,82.6,36.2,30.06,South,176,3.1,5.4,19,0.00,,FEW045,0.00,VWS V14.01,2013-07-18 18:11:00,
2013-07-18 11:16:00,82.9,36.5,30.06,SW,225,5.8,6.3,19,0.00,,FEW045,0.00,VWS V14.01,2013-07-18 18:16:00,
2013-07-18 11:21:00,82.9,36.5,30.06,West,263,4.0,4.0,19,0.00,,FEW045,0.00,VWS V14.01,2013-07-18 18:21:00,
2013-07-18 11:26:00,83.1,36.6,30.06,SW,230,5.4,5.4,19,0.00,,FEW045,0.00,VWS V14.01,2013-07-18 18:26:00,
2013-07-18 11:31:00,83.1,36.6,30.06,South,169,0.0,3.1,19,0.00,,FEW045,0.00,VWS V14.01,2013-07-18 18:31:00,
2013-07-18 11:36:00,83.5,36.9,30.06,WSW,253,3.6,7.6,19,0.00,,FEW045,0.00,VWS V14.01,2013-07-18 18:36:00,
2013-07-18 11:41:00,83.7,37.1,30.06,SW,223,6.3,6.3,19,0.00,,FEW045,0.00,VWS V14.01,2013-07-18 18:41:00,
2013-07-18 11:46:00,84.0,37.4,30.06,WSW,240,6.3,8.7,19,0.00,,FEW045,0.00,VWS V14.01,2013-07-18 18:46:00,
2013-07-18 11:51:00,83.7,37.1,30.06,SW,218,8.3,9.6,19,0.00,,FEW045,0.00,VWS V14.01,2013-07-18 18:51:00,
2013-07-18 11:56:00,83.8,37.2,30.06,SSW,202,5.8,5.8,19,0.00,,FEW045,0.00,VWS V14.01,2013-07-18 18:56:00,
2013-07-18 12:01:00,83.7,37.1,30.06,SSW,212,0.0,0.0,19,0.00,,FEW048,0.00,VWS V14.01,2013-07-18 19:01:00,
2013-07-18 12:06:00,83.8,37.2,30.06,West,280,3.6,4.5,19,0.00,,FEW048,0.00,VWS V14.01,2013-07-18 19:06:00,
2013-07-18 12:11:00,83.8,37.2,30.06,SW,226,4.9,5.4,19,0.00,,FEW048,0.00,VWS V14.01,2013-07-18 19:11:00,
2013-07-18 12:16:00,84.2,36.2,30.06,WNW,298,3.1,5.4,18,0.00,,FEW048,0.00,VWS V14.01,2013-07-18 19:16:00,
2013-07-18 12:21:00,84.0,33.0,30.06,NW,316,2.7,3.1,16,0.00,,FEW048,0.00,VWS V14.01,2013-07-18 19:21:00,
2013-07-18 12:26:00,84.2,36.2,30.06,SW,222,6.3,6.3,18,0.00,,FEW048,0.00,VWS V14.01,2013-07-18 19:26:00,
2013-07-18 12:31:00,84.6,37.8,30.06,NE,36,2.7,4.5,19,0.00,,FEW048,0.00,VWS V14.01,2013-07-18 19:31:00,
2013-07-18 12:36:00,84.9,36.7,30.06,SW,236,4.0,4.0,18,0.00,,FEW048,0.00,VWS V14.01,2013-07-18 19:36:00,
2013-07-18 12:41:00,85.1,33.9,30.06,SW,223,0.0,2.2,16,0.00,,FEW048,0.00,VWS V14.01,2013-07-18 19:41:00,
2013-07-18 12:46:00,84.9,36.7,30.06,WSW,244,2.7,4.9,18,0.00,,FEW048,0.00,VWS V14.01,2013-07-18 19:46:00,
2013-07-18 12:51:00,84.9,36.7,30.06,WSW,244,5.8,6.7,18,0.00,,FEW048,0.00,VWS V14.01,2013-07-18 19:51:00,
2013-07-18 12:56:00,85.3,34.1,30.06,SW,231,0.0,3.6,16,0.00,,FEW048,0.00,VWS V14.01,2013-07-18 19:56:00,
2013-07-18 13:01:00,85.5,37.2,30.06,SW,226,4.0,4.0,18,0.00,,FEW048,0.00,VWS V14.01,2013-07-18 20:01:00,
2013-07-18 13:05:00,85.1,36.9,30.03,WSW,239,5.8,5.8,18,0.00,,FEW048,0.00,VWS V14.01,2013-07-18 20:05:00,
2013-07-18 13:11:00,85.5,34.2,30.03,WNW,291,0.0,2.7,16,0.00,,FEW048,0.00,VWS V14.01,2013-07-18 20:11:00,
2013-07-18 13:16:00,85.8,34.5,30.03,WSW,257,8.3,8.3,16,0.00,,FEW048,0.00,VWS V14.01,2013-07-18 20:16:00,
2013-07-18 13:21:00,86.4,34.9,30.03,West,267,5.4,7.6,16,0.00,,FEW048,0.00,VWS V14.01,2013-07-18 20:21:00,
2013-07-18 13:26:00,86.5,35.1,30.03,WNW,294,5.4,6.3,16,0.00,,FEW048,0.00,VWS V14.01,2013-07-18 20:26:00,
2013-07-18 13:31:00,86.9,35.3,30.03,WSW,256,5.8,7.6,16,0.00,,FEW048,0.00,VWS V14.01,2013-07-18 20:31:00,
2013-07-18 13:36:00,86.7,35.2,30.03,SSW,197,0.0,3.6,16,0.00,,FEW048,0.00,VWS V14.01,2013-07-18 20:36:00,
2013-07-18 13:41:00,86.0,34.6,30.03,SSW,193,0.0,0.0,16,0.00,,FEW048,0.00,VWS V14.01,2013-07-18 20:41:00,
2013-07-18 13:46:00,86.4,34.9,30.03,West,262,6.3,8.3,16,0.00,,FEW048,0.00,VWS V14.01,2013-07-18 20:46:00,
2013-07-18 13:51:00,86.7,35.2,30.03,WSW,249,7.6,8.3,16,0.00,,FEW048,0.00,VWS V14.01,2013-07-18 20:51:00,
2013-07-18 13:56:00,86.9,35.3,30.03,SW,221,3.1,6.3,16,0.00,,FEW048,0.00,VWS V14.01,2013-07-18 20:56:00,
2013-07-18 14:01:00,87.3,35.6,30.03,WNW,282,5.4,5.4,16,0.00,,FEW055,0.00,VWS V14.01,2013-07-18 21:01:00,
2013-07-18 14:05:00,87.4,35.8,30.03,SSW,204,4.0,4.0,16,0.00,,FEW055,0.00,VWS V14.01,2013-07-18 21:05:00,
2013-07-18 14:10:00,87.4,35.8,30.03,SSW,202,2.7,3.6,16,0.00,,FEW055,0.00,VWS V14.01,2013-07-18 21:10:00,
2013-07-18 14:15:00,87.8,34.5,30.03,WNW,303,0.0,0.0,15,0.00,,FEW055,0.00,VWS V14.01,2013-07-18 21:15:00,
2013-07-18 14:20:00,88.0,34.6,30.03,SW,217,8.1,8.1,15,0.00,,FEW055,0.00,VWS V14.01,2013-07-18 21:20:00,
2013-07-18 14:25:00,88.3,34.9,30.03,West,281,2.7,4.9,15,0.00,,FEW055,0.00,VWS V14.01,2013-07-18 21:25:00,
2013-07-18 14:30:00,88.5,35.0,30.03,SSW,206,0.0,0.0,15,0.00,,FEW055,0.00,VWS V14.01,2013-07-18 21:30:00,
2013-07-18 14:35:00,88.7,35.2,30.01,WSW,254,0.0,3.6,15,0.00,,FEW055,0.00,VWS V14.01,2013-07-18 21:35:00,
2013-07-18 14:40:00,89.2,35.6,30.01,SW,232,5.4,5.4,15,0.00,,FEW055,0.00,VWS V14.01,2013-07-18 21:40:00,
2013-07-18 14:45:00,89.2,35.6,30.01,WSW,251,6.7,7.6,15,0.00,,FEW055,0.00,VWS V14.01,2013-07-18 21:45:00,
2013-07-18 14:50:00,89.2,32.0,30.03,West,274,0.0,4.0,13,0.00,,FEW055,0.00,VWS V14.01,2013-07-18 21:50:00,
2013-07-18 14:55:00,89.1,35.5,30.03,SW,228,3.6,4.0,15,0.00,,FEW055,0.00,VWS V14.01,2013-07-18 21:55:00,
2013-07-18 15:00:00,89.4,35.7,30.03,WSW,254,5.8,6.3,15,0.00,,FEW055,0.00,VWS V14.01,2013-07-18 22:00:00,
2013-07-18 15:05:00,89.8,36.0,30.01,SW,229,4.9,5.4,15,0.00,,FEW055,0.00,VWS V14.01,2013-07-18 22:05:00,
2013-07-18 15:10:00,90.0,30.6,30.01,West,273,7.6,7.6,12,0.00,,FEW055,0.00,VWS V14.01,2013-07-18 22:10:00,
2013-07-18 15:15:00,89.6,30.3,30.01,SSE,152,2.2,3.1,12,0.00,,FEW055,0.00,VWS V14.01,2013-07-18 22:15:00,
2013-07-18 15:20:00,89.1,31.9,30.01,SW,215,2.2,5.8,13,0.00,,FEW055,0.00,VWS V14.01,2013-07-18 22:20:00,
2013-07-18 15:25:00,89.8,36.0,30.01,West,266,0.0,0.0,15,0.00,,FEW055,0.00,VWS V14.01,2013-07-18 22:25:00,
2013-07-18 15:30:00,90.0,30.6,30.01,SW,222,3.6,3.6,12,0.00,,FEW055,0.00,VWS V14.01,2013-07-18 22:30:00,
2013-07-18 15:35:00,89.6,30.3,30.01,East,101,4.9,4.9,12,0.00,,FEW055,0.00,VWS V14.01,2013-07-18 22:35:00,
2013-07-18 15:40:00,89.1,31.9,30.01,NE,38,2.2,3.6,13,0.00,,FEW055,0.00,VWS V14.01,2013-07-18 22:40:00,
2013-07-18 15:45:00,88.7,35.2,30.01,East,89,3.1,3.1,15,0.00,,FEW055,0.00,VWS V14.01,2013-07-18 22:45:00,
2013-07-18 15:50:00,88.5,31.5,30.01,SSW,201,6.3,6.3,13,0.00,,FEW055,0.00,VWS V14.01,2013-07-18 22:50:00,
2013-07-18 15:55:00,89.1,31.9,30.01,WSW,254,7.6,7.6,13,0.00,,FEW055,0.00,VWS V14.01,2013-07-18 22:55:00,
2013-07-18 16:00:00,89.2,32.0,30.01,SW,234,3.6,3.6,13,0.00,,FEW060,0.00,VWS V14.01,2013-07-18 23:00:00,
2013-07-18 16:05:00,89.2,32.0,30.01,WSW,245,5.8,5.8,13,0.00,,FEW060,0.00,VWS V14.01,2013-07-18 23:05:00,
2013-07-18 16:10:00,89.2,32.0,30.01,North,353,2.7,3.6,13,0.00,,FEW060,0.00,VWS V14.01,2013-07-18 23:10:00,
2013-07-18 16:15:00,89.1,31.9,30.01,NW,324,3.1,3.1,13,0.00,,FEW060,0.00,VWS V14.01,2013-07-18 23:15:00,
2013-07-18 16:20:00,89.2,32.0,30.01,WNW,296,0.0,0.0,13,0.00,,FEW060,0.00,VWS V14.01,2013-07-18 23:20:00,
2013-07-18 16:25:00,89.4,32.2,30.01,SSE,153,0.0,0.0,13,0.00,,FEW060,0.00,VWS V14.01,2013-07-18 23:25:00,
2013-07-18 16:30:00,90.1,30.7,30.01,SW,236,5.4,6.3,12,0.00,,FEW060,0.00,VWS V14.01,2013-07-18 23:30:00,
2013-07-18 16:35:00,90.7,31.2,29.98,South,189,5.4,5.8,12,0.00,,FEW060,0.00,VWS V14.01,2013-07-18 23:35:00,
2013-07-18 16:40:00,89.6,30.3,29.98,SW,214,0.0,3.6,12,0.00,,FEW060,0.00,VWS V14.01,2013-07-18 23:40:00,
2013-07-18 16:45:00,88.3,31.3,29.98,WSW,252,2.7,2.7,13,0.00,,FEW060,0.00,VWS V14.01,2013-07-18 23:45:00,
2013-07-18 16:50:00,87.6,30.8,29.98,West,259,7.6,7.6,13,0.00,,FEW060,0.00,VWS V14.01,2013-07-18 23:50:00,
2013-07-18 16:55:00,87.3,30.5,29.98,West,275,4.0,4.0,13,0.00,,FEW060,0.00,VWS V14.01,2013-07-18 23:55:00,
2013-07-18 17:00:00,87.6,30.8,29.98,SW,228,5.8,8.1,13,0.00,,FEW060,0.00,VWS V14.01,2013-07-19 00:00:00,
2013-07-18 17:05:00,87.6,30.8,29.98,WSW,257,3.6,5.4,13,0.00,,FEW060,0.00,VWS V14.01,2013-07-19 00:05:00,
2013-07-18 17:10:00,87.6,30.8,29.98,WSW,240,3.6,4.0,13,0.00,,FEW060,0.00,VWS V14.01,2013-07-19 00:10:00,
2013-07-18 17:15:00,86.9,30.2,29.98,SW,233,2.7,4.0,13,0.00,,FEW060,0.00,VWS V14.01,2013-07-19 00:15:00,
2013-07-18 17:20:00,86.5,29.9,29.98,WSW,238,4.5,6.3,13,0.00,,FEW060,0.00,VWS V14.01,2013-07-19 00:20:00,
2013-07-18 17:25:00,86.7,30.0,29.98,West,271,0.0,0.0,13,0.00,,FEW060,0.00,VWS V14.01,2013-07-19 00:25:00,
2013-07-18 17:30:00,87.4,30.6,29.98,NW,310,2.2,2.7,13,0.00,,FEW060,0.00,VWS V14.01,2013-07-19 00:30:00,
2013-07-18 17:35:00,87.6,30.8,29.98,NW,306,5.4,5.4,13,0.00,,FEW060,0.00,VWS V14.01,2013-07-19 00:35:00,
2013-07-18 17:40:00,87.6,30.8,29.98,NNW,344,0.0,2.7,13,0.00,,FEW060,0.00,VWS V14.01,2013-07-19 00:40:00,
2013-07-18 17:45:00,87.6,30.8,29.98,NW,319,0.0,3.1,13,0.00,,FEW060,0.00,VWS V14.01,2013-07-19 00:45:00,
2013-07-18 17:50:00,87.1,30.3,29.98,NNW,331,2.7,2.7,13,0.00,,FEW060,0.00,VWS V14.01,2013-07-19 00:50:00,
2013-07-18 17:55:00,86.5,29.9,29.98,NNE,30,0.0,0.0,13,0.00,,FEW060,0.00,VWS V14.01,2013-07-19 00:55:00,
2013-07-18 18:00:00,85.1,28.8,29.98,NE,39,0.0,0.0,13,0.00,,FEW065,0.00,VWS V14.01,2013-07-19 01:00:00,
2013-07-18 18:05:00,84.4,28.2,29.98,SW,231,5.4,5.4,13,0.00,,FEW065,0.00,VWS V14.01,2013-07-19 01:05:00,
2013-07-18 18:10:00,84.4,28.2,29.98,SSW,211,2.7,5.4,13,0.00,,FEW065,0.00,VWS V14.01,2013-07-19 01:10:00,
2013-07-18 18:15:00,84.0,29.8,29.98,SSW,213,0.0,0.0,14,0.00,,FEW065,0.00,VWS V14.01,2013-07-19 01:15:00,
2013-07-18 18:20:00,83.5,29.3,29.98,SW,215,0.0,0.0,14,0.00,,FEW065,0.00,VWS V14.01,2013-07-19 01:20:00,
2013-07-18 18:25:00,83.3,29.2,29.98,SW,215,0.0,0.0,14,0.00,,FEW065,0.00,VWS V14.01,2013-07-19 01:25:00,
2013-07-18 18:30:00,82.9,28.9,29.98,NNE,28,3.1,4.0,14,0.00,,FEW065,0.00,VWS V14.01,2013-07-19 01:30:00,
2013-07-18 18:35:00,83.7,29.5,29.98,North,350,0.0,2.2,14,0.00,,FEW065,0.00,VWS V14.01,2013-07-19 01:35:00,
2013-07-18 18:40:00,84.0,29.8,29.98,North,353,2.2,2.7,14,0.00,,FEW065,0.00,VWS V14.01,2013-07-19 01:40:00,
2013-07-18 18:45:00,84.2,28.1,29.98,WNW,282,0.0,0.0,13,0.00,,FEW065,0.00,VWS V14.01,2013-07-19 01:45:00,
2013-07-18 18:50:00,84.2,28.1,29.98,NW,308,0.0,2.2,13,0.00,,FEW065,0.00,VWS V14.01,2013-07-19 01:50:00,
2013-07-18 18:55:00,84.7,28.5,29.98,WNW,287,2.7,2.7,13,0.00,,FEW065,0.00,VWS V14.01,2013-07-19 01:55:00,
2013-07-18 19:00:00,84.4,28.2,29.98,WNW,290,2.7,2.7,13,0.00,,FEW065,0.00,VWS V14.01,2013-07-19 02:00:00,
2013-07-18 19:05:00,84.7,28.5,29.98,West,275,3.1,3.1,13,0.00,,FEW065,0.00,VWS V14.01,2013-07-19 02:05:00,
2013-07-18 19:10:00,83.7,29.5,29.98,WSW,254,0.0,0.0,14,0.00,,FEW065,0.00,VWS V14.01,2013-07-19 02:10:00,
2013-07-18 19:15:00,82.6,28.6,29.98,WSW,254,0.0,0.0,14,0.00,,FEW065,0.00,VWS V14.01,2013-07-19 02:15:00,
2013-07-18 19:20:00,82.4,28.5,29.95,NW,305,0.0,0.0,14,0.00,,FEW065,0.00,VWS V14.01,2013-07-19 02:20:00,
2013-07-18 19:25:00,82.4,28.5,29.95,NW,305,0.0,0.0,14,0.00,,FEW065,0.00,VWS V14.01,2013-07-19 02:25:00,
2013-07-18 19:30:00,82.0,28.2,29.95,NNE,25,0.0,0.0,14,0.00,,FEW065,0.00,VWS V14.01,2013-07-19 02:30:00,
2013-07-18 19:35:00,81.3,27.6,29.98,NNE,31,3.1,3.1,14,0.00,,FEW065,0.00,VWS V14.01,2013-07-19 02:35:00,
2013-07-18 19:40:00,80.8,27.2,29.98,NE,34,0.0,0.0,14,0.00,,FEW065,0.00,VWS V14.01,2013-07-19 02:40:00,
2013-07-18 19:45:00,80.2,28.4,29.98,NE,35,2.7,2.7,15,0.00,,FEW065,0.00,VWS V14.01,2013-07-19 02:45:00,
2013-07-18 19:50:00,81.3,27.6,29.95,NNE,27,3.1,4.0,14,0.00,,FEW065,0.00,VWS V14.01,2013-07-19 02:50:00,
2013-07-18 19:55:00,82.6,28.6,29.95,NNE,19,3.1,3.1,14,0.00,,FEW065,0.00,VWS V14.01,2013-07-19 02:55:00,
2013-07-18 20:00:00,83.1,29.0,29.95,NNE,31,0.0,2.7,14,0.00,,FEW070,0.00,VWS V14.01,2013-07-19 03:00:00,
2013-07-18 20:05:00,83.1,29.0,29.95,East,88,2.2,3.1,14,0.00,,FEW070,0.00,VWS V14.01,2013-07-19 03:05:00,
2013-07-18 20:10:00,83.3,29.2,29.95,East,88,0.0,2.2,14,0.00,,FEW070,0.00,VWS V14.01,2013-07-19 03:10:00,
2013-07-18 20:15:00,82.0,28.2,29.95,East,88,0.0,0.0,14,0.00,,FEW070,0.00,VWS V14.01,2013-07-19 03:15:00,
2013-07-18 20:20:00,79.9,28.1,29.95,East,88,0.0,0.0,15,0.00,,FEW070,0.00,VWS V14.01,2013-07-19 03:20:00,
2013-07-18 20:25:00,78.1,31.2,29.95,East,88,0.0,0.0,18,0.00,,FEW070,0.00,VWS V14.01,2013-07-19 03:25:00,
2013-07-18 20:30:00,76.6,25.6,29.95,East,88,0.0,0.0,15,0.00,,FEW070,0.00,VWS V14.01,2013-07-19 03:30:00,
2013-07-18 20:35:00,75.7,24.9,29.98,East,88,0.0,0.0,15,0.00,,FEW070,0.00,VWS V14.01,2013-07-19 03:35:00,
2013-07-18 20:40:00,75.4,24.6,29.98,East,88,0.0,0.0,15,0.00,,FEW070,0.00,VWS V14.01,2013-07-19 03:40:00,
2013-07-18 20:45:00,75.7,29.3,29.98,East,88,0.0,0.0,18,0.00,,FEW070,0.00,VWS V14.01,2013-07-19 03:45:00,
2013-07-18 20:50:00,75.4,29.0,29.98,East,88,0.0,0.0,18,0.00,,FEW070,0.00,VWS V14.01,2013-07-19 03:50:00,
2013-07-18 20:55:00,75.0,28.7,29.98,East,88,0.0,0.0,18,0.00,,FEW070,0.00,VWS V14.01,2013-07-19 03:55:00,
2013-07-18 21:00:00,74.1,27.9,29.98,East,88,0.0,0.0,18,0.00,,FEW070,0.00,VWS V14.01,2013-07-19 04:00:00,
2013-07-18 21:01:00,74.1,27.9,29.98,East,88,0.0,0.0,18,0.00,,FEW070,0.00,VWS V14.01,2013-07-19 04:01:00,
2013-07-18 21:06:00,73.2,28.5,29.98,East,88,0.0,0.0,19,0.00,,FEW070,0.00,VWS V14.01,2013-07-19 04:06:00,
2013-07-18 21:11:00,72.9,30.7,29.98,East,88,0.0,0.0,21,0.00,,FEW070,0.00,VWS V14.01,2013-07-19 04:11:00,
2013-07-18 21:16:00,72.9,30.7,29.98,East,88,0.0,0.0,21,0.00,,FEW070,0.00,VWS V14.01,2013-07-19 04:16:00,
2013-07-18 21:21:00,72.1,30.1,29.98,East,88,0.0,0.0,21,0.00,,FEW070,0.00,VWS V14.01,2013-07-19 04:21:00,
2013-07-18 21:26:00,71.8,30.9,29.98,East,88,0.0,0.0,22,0.00,,FEW070,0.00,VWS V14.01,2013-07-19 04:26:00,
2013-07-18 21:31:00,71.8,30.9,29.98,East,88,0.0,0.0,22,0.00,,FEW070,0.00,VWS V14.01,2013-07-19 04:31:00,
2013-07-18 21:36:00,71.6,30.8,29.98,East,88,0.0,0.0,22,0.00,,FEW070,0.00,VWS V14.01,2013-07-19 04:36:00,
2013-07-18 21:41:00,71.2,30.5,29.98,East,88,0.0,0.0,22,0.00,,FEW070,0.00,VWS V14.01,2013-07-19 04:41:00,
2013-07-18 21:46:00,70.7,30.0,29.98,East,88,0.0,0.0,22,0.00,,FEW070,0.00,VWS V14.01,2013-07-19 04:46:00,
2013-07-18 21:51:00,70.0,29.4,29.98,East,88,0.0,0.0,22,0.00,,FEW070,0.00,VWS V14.01,2013-07-19 04:51:00,
2013-07-18 21:56:00,69.4,30.1,29.98,East,88,0.0,0.0,23,0.00,,FEW070,0.00,VWS V14.01,2013-07-19 04:56:00,
2013-07-18 22:01:00,68.5,30.4,29.98,East,88,0.0,0.0,24,0.00,,CLR,0.00,VWS V14.01,2013-07-19 05:01:00,
2013-07-18 22:06:00,68.0,29.9,29.98,East,88,0.0,0.0,24,0.00,,CLR,0.00,VWS V14.01,2013-07-19 05:06:00,
2013-07-18 22:11:00,67.5,30.4,29.98,East,88,0.0,0.0,25,0.00,,CLR,0.00,VWS V14.01,2013-07-19 05:11:00,
2013-07-18 22:16:00,67.3,30.3,29.98,East,88,0.0,0.0,25,0.00,,CLR,0.00,VWS V14.01,2013-07-19 05:16:00,
2013-07-18 22:21:00,66.7,30.8,29.98,East,88,0.0,0.0,26,0.00,,CLR,0.00,VWS V14.01,2013-07-19 05:21:00,
2013-07-18 22:26:00,66.6,30.6,29.98,East,88,0.0,0.0,26,0.00,,CLR,0.00,VWS V14.01,2013-07-19 05:26:00,
2013-07-18 22:31:00,66.4,31.4,29.98,East,88,0.0,0.0,27,0.00,,CLR,0.00,VWS V14.01,2013-07-19 05:31:00,
2013-07-18 22:36:00,66.0,31.1,29.98,East,88,0.0,0.0,27,0.00,,CLR,0.00,VWS V14.01,2013-07-19 05:36:00,
2013-07-18 22:41:00,66.0,31.1,29.98,East,88,0.0,0.0,27,0.00,,CLR,0.00,VWS V14.01,2013-07-19 05:41:00,
2013-07-18 22:46:00,66.0,32.0,29.98,East,88,0.0,0.0,28,0.00,,CLR,0.00,VWS V14.01,2013-07-19 05:46:00,
2013-07-18 22:51:00,66.2,31.3,29.98,East,95,0.0,0.0,27,0.00,,CLR,0.00,VWS V14.01,2013-07-19 05:51:00,
2013-07-18 22:56:00,66.2,32.2,29.98,East,95,0.0,0.0,28,0.00,,CLR,0.00,VWS V14.01,2013-07-19 05:56:00,
2013-07-18 23:01:00,66.4,31.4,29.98,East,95,0.0,0.0,27,0.00,,CLR,0.00,VWS V14.01,2013-07-19 06:01:00,
2013-07-18 23:06:00,66.0,32.9,29.98,East,95,0.0,0.0,29,0.00,,CLR,0.00,VWS V14.01,2013-07-19 06:06:00,
2013-07-18 23:11:00,65.5,33.3,29.98,East,95,0.0,0.0,30,0.00,,CLR,0.00,VWS V14.01,2013-07-19 06:11:00,
2013-07-18 23:16:00,64.9,32.8,29.98,East,95,0.0,0.0,30,0.00,,CLR,0.00,VWS V14.01,2013-07-19 06:16:00,
2013-07-18 23:21:00,64.8,34.2,29.98,East,95,0.0,0.0,32,0.00,,CLR,0.00,VWS V14.01,2013-07-19 06:21:00,
2013-07-18 23:26:00,64.6,34.1,29.98,East,95,0.0,0.0,32,0.00,,CLR,0.00,VWS V14.01,2013-07-19 06:26:00,
2013-07-18 23:31:00,64.8,33.5,29.98,East,96,0.0,0.0,31,0.00,,CLR,0.00,VWS V14.01,2013-07-19 06:31:00,
2013-07-18 23:36:00,65.5,33.3,29.98,East,96,0.0,0.0,30,0.00,,CLR,0.00,VWS V14.01,2013-07-19 06:36:00,
2013-07-18 23:41:00,65.5,32.4,29.98,East,96,0.0,0.0,29,0.00,,CLR,0.00,VWS V14.01,2013-07-19 06:41:00,
2013-07-18 23:46:00,65.5,32.4,29.98,East,96,0.0,0.0,29,0.00,,CLR,0.00,VWS V14.01,2013-07-19 06:46:00,
2013-07-18 23:51:00,65.3,33.1,29.98,ESE,107,0.0,0.0,30,0.00,,CLR,0.00,VWS V14.01,2013-07-19 06:51:00,
2013-07-18 23:56:00,65.1,32.9,29.98,ESE,107,0.0,0.0,30,0.00,,CLR,0.00,VWS V14.01,2013-07-19 06:56:00,